createdAt,value
2023-01-10T00:00:50.511Z,5.48
2023-01-10T00:04:53.574Z,5.50
2023-01-10T00:08:57.610Z,5.49
2023-01-10T00:13:19.488Z,5.51
2023-01-10T00:17:22.493Z,5.48
2023-01-10T00:21:25.569Z,5.47
2023-01-10T00:25:28.726Z,5.48
2023-01-10T00:29:34.136Z,5.50
2023-01-10T00:33:37.989Z,5.51
2023-01-10T00:37:41.948Z,5.53
2023-01-10T00:42:02.400Z,5.54
2023-01-10T00:46:07.051Z,5.53
2023-01-10T00:50:11.146Z,5.54
2023-01-10T00:54:15.126Z,5.52
2023-01-10T00:58:18.732Z,5.53
2023-01-10T01:02:23.939Z,5.56
2023-01-10T01:06:27.723Z,5.55
2023-01-10T01:10:30.756Z,5.55
2023-01-10T01:14:33.788Z,5.54
2023-01-10T01:18:38.196Z,5.57
2023-01-10T01:22:41.693Z,5.57
2023-01-10T01:26:45.746Z,5.57
2023-01-10T01:30:49.177Z,5.61
2023-01-10T01:34:53.687Z,5.59
2023-01-10T01:38:56.701Z,5.57
2023-01-10T01:43:00.140Z,5.56
2023-01-10T01:47:07.654Z,5.57
2023-01-10T01:51:18.810Z,5.58
2023-01-10T01:55:22.680Z,5.60
2023-01-10T01:59:29.969Z,5.60
2023-01-10T02:03:33.393Z,5.60
2023-01-10T02:07:39.751Z,5.61
2023-01-10T02:11:42.737Z,5.58
2023-01-10T02:15:45.946Z,5.57
2023-01-10T02:19:53.535Z,5.54
2023-01-10T02:24:31.055Z,5.56
2023-01-10T02:29:01.067Z,5.52
2023-01-10T02:33:15.394Z,5.49
2023-01-10T02:37:25.926Z,5.48
2023-01-10T02:41:34.561Z,5.47
2023-01-10T02:45:42.099Z,5.48
2023-01-10T02:49:48.378Z,5.43
2023-01-10T02:53:56.297Z,5.40
2023-01-10T02:58:09.074Z,5.40
2023-01-10T03:02:21.904Z,5.38
2023-01-10T03:06:37.071Z,5.35
2023-01-10T03:10:45.942Z,5.35
2023-01-10T03:14:50.370Z,5.33
2023-01-10T03:18:58.856Z,5.31
2023-01-10T03:23:05.978Z,5.31
2023-01-10T03:27:15.042Z,5.27
2023-01-10T03:31:22.674Z,5.23
2023-01-10T03:35:31.744Z,5.23
2023-01-10T03:39:47.405Z,5.22
2023-01-10T03:44:15.778Z,5.16
2023-01-10T03:48:22.152Z,5.15
2023-01-10T03:52:26.765Z,5.15
2023-01-10T03:56:31.261Z,5.11
2023-01-10T04:00:34.405Z,5.10
2023-01-10T04:04:37.638Z,5.08
2023-01-10T04:08:40.657Z,5.05
2023-01-10T04:12:45.343Z,5.03
2023-01-10T04:16:48.337Z,5.02
2023-01-10T04:20:52.278Z,4.99
2023-01-10T04:24:55.376Z,4.97
2023-01-10T04:28:59.761Z,4.92
2023-01-10T04:33:02.769Z,4.90
2023-01-10T04:37:05.859Z,4.86
2023-01-10T04:41:08.869Z,4.87
2023-01-10T04:45:17.636Z,4.84
2023-01-10T04:49:20.967Z,4.82
2023-01-10T04:53:24.269Z,4.81
2023-01-10T04:57:27.355Z,4.81
2023-01-10T05:01:31.810Z,4.81
2023-01-10T05:05:34.939Z,4.78
2023-01-10T05:09:37.981Z,4.76
2023-01-10T05:13:42.644Z,4.76
2023-01-10T05:17:47.207Z,4.75
2023-01-10T05:21:52.147Z,4.73
2023-01-10T05:25:55.591Z,4.72
2023-01-10T05:29:58.605Z,4.76
2023-01-10T05:34:03.844Z,4.75
2023-01-10T05:38:07.068Z,4.74
2023-01-10T05:42:10.079Z,4.77
2023-01-10T05:46:13.150Z,4.73
2023-01-10T05:50:19.046Z,4.76
2023-01-10T05:54:22.205Z,4.78
2023-01-10T05:58:26.507Z,4.79
2023-01-10T06:02:29.712Z,4.82
2023-01-10T06:06:34.453Z,4.82
2023-01-10T06:10:37.636Z,4.86
2023-01-10T06:14:40.638Z,4.82
2023-01-10T06:18:43.700Z,4.85
2023-01-10T06:22:48.111Z,4.82
2023-01-10T06:26:51.111Z,4.83
2023-01-10T06:30:54.288Z,4.84
2023-01-10T06:34:57.320Z,4.88
2023-01-10T06:39:02.059Z,4.85
2023-01-10T06:43:05.107Z,4.87
2023-01-10T06:47:08.274Z,4.87
2023-01-10T06:51:11.352Z,4.90
2023-01-10T06:55:15.900Z,4.89
2023-01-10T06:59:19.003Z,4.92
2023-01-10T07:03:22.249Z,4.90
2023-01-10T07:07:25.389Z,4.91
2023-01-10T07:11:29.797Z,4.89
2023-01-10T07:15:32.816Z,4.91
2023-01-10T07:19:35.855Z,4.90
2023-01-10T07:23:40.552Z,4.92
2023-01-10T07:27:45.061Z,4.94
2023-01-10T07:31:51.242Z,4.90
2023-01-10T07:35:54.562Z,4.93
2023-01-10T07:39:57.638Z,4.96
2023-01-10T07:44:02.101Z,4.98
2023-01-10T07:53:41.891Z,5.00
2023-01-10T07:57:44.849Z,5.03
2023-01-10T08:01:49.634Z,5.10
2023-01-10T08:05:59.293Z,5.11
2023-01-10T08:10:02.336Z,5.10
2023-01-10T08:14:05.452Z,5.13
2023-01-10T08:18:10.037Z,5.20
2023-01-10T08:22:13.274Z,5.22
2023-01-10T08:26:16.296Z,5.24
2023-01-10T08:30:19.607Z,5.27
2023-01-10T08:34:25.044Z,5.30
2023-01-10T08:38:29.449Z,5.34
2023-01-10T08:42:32.451Z,5.38
2023-01-10T08:46:35.551Z,5.38
2023-01-10T08:50:40.088Z,5.41
2023-01-10T08:54:43.359Z,5.43
2023-01-10T08:58:46.389Z,5.44
2023-01-10T09:02:49.463Z,5.46
2023-01-10T09:06:54.041Z,5.48
2023-01-10T09:11:00.077Z,5.50
2023-01-10T09:15:03.550Z,5.54
2023-01-10T09:19:06.808Z,5.54
2023-01-10T09:23:13.631Z,5.57
2023-01-10T09:27:16.861Z,5.61
2023-01-10T09:31:20.104Z,5.60
2023-01-10T09:35:23.844Z,5.64
2023-01-10T09:39:29.396Z,5.64
2023-01-10T09:43:42.875Z,5.68
2023-01-10T09:47:54.238Z,5.70
2023-01-10T09:51:59.499Z,5.71
2023-01-10T09:56:05.277Z,5.76
2023-01-10T10:00:16.765Z,5.77
2023-01-10T10:04:26.968Z,5.76
2023-01-10T10:08:30.596Z,5.83
2023-01-10T10:12:44.751Z,5.83
2023-01-10T10:17:00.619Z,5.86
2023-01-10T10:21:09.551Z,5.89
2023-01-10T10:25:26.308Z,5.92
2023-01-10T10:29:51.966Z,5.94
2023-01-10T10:34:01.750Z,6.00
2023-01-10T10:38:13.638Z,6.02
2023-01-10T10:42:19.244Z,6.05
2023-01-10T10:46:23.709Z,6.06
2023-01-10T10:50:32.631Z,6.06
2023-01-10T10:54:37.225Z,6.13
2023-01-10T10:58:43.335Z,6.14
2023-01-10T11:02:51.242Z,6.17
2023-01-10T11:06:54.504Z,6.21
2023-01-10T11:10:59.144Z,6.23
2023-01-10T11:15:02.216Z,6.30
2023-01-10T11:19:21.949Z,6.32
2023-01-10T11:23:30.516Z,6.34
2023-01-10T11:27:38.004Z,6.40
2023-01-10T11:31:42.182Z,6.41
2023-01-10T11:35:58.688Z,6.44
2023-01-10T11:40:26.721Z,6.52
2023-01-10T11:44:30.938Z,6.57
2023-01-10T11:49:04.960Z,6.58
2023-01-10T11:53:34.830Z,6.63
2023-01-10T11:57:38.778Z,6.72
2023-01-10T12:01:44.851Z,6.72
2023-01-10T12:05:52.936Z,6.69
2023-01-10T12:09:59.441Z,6.74
2023-01-10T12:14:03.020Z,6.73
2023-01-10T12:18:07.789Z,6.77
2023-01-10T12:22:16.779Z,6.82
2023-01-10T12:26:21.791Z,6.78
2023-01-10T12:30:32.756Z,6.77
2023-01-10T12:34:43.021Z,6.83
2023-01-10T12:39:06.026Z,6.87
2023-01-10T12:43:47.695Z,6.88
2023-01-10T12:48:00.295Z,6.89
2023-01-10T12:52:10.936Z,6.90
2023-01-10T12:56:16.926Z,6.89
2023-01-10T13:00:25.325Z,6.89
2023-01-10T13:04:32.723Z,6.93
2023-01-10T13:08:38.964Z,6.96
2023-01-10T13:12:46.776Z,6.98
2023-01-10T13:16:55.701Z,7.00
2023-01-10T13:21:08.865Z,6.97
2023-01-10T13:25:22.357Z,6.98
2023-01-10T13:29:27.779Z,6.95
2023-01-10T13:33:36.098Z,6.93
2023-01-10T13:37:41.320Z,6.91
2023-01-10T13:42:30.882Z,6.91
2023-01-10T13:46:42.527Z,6.88
2023-01-10T13:51:08.863Z,6.90
2023-01-10T13:55:29.396Z,6.86
2023-01-10T14:00:23.003Z,6.87
2023-01-10T14:04:28.849Z,6.87
2023-01-10T14:08:34.027Z,6.89
2023-01-10T14:12:41.295Z,6.88
2023-01-10T14:16:47.753Z,6.83
2023-01-10T14:20:59.033Z,6.83
2023-01-10T14:25:05.748Z,6.77
2023-01-10T14:29:13.881Z,6.76
2023-01-10T14:33:21.496Z,6.78
2023-01-10T14:37:32.031Z,6.76
2023-01-10T14:41:40.402Z,6.76
2023-01-10T14:45:50.953Z,6.71
2023-01-10T14:49:55.535Z,6.70
2023-01-10T14:54:01.453Z,6.66
2023-01-10T14:58:05.940Z,6.66
2023-01-10T15:02:17.068Z,6.65
2023-01-10T15:06:20.394Z,6.64
2023-01-10T15:10:27.164Z,6.60
2023-01-10T15:14:33.752Z,6.60
2023-01-10T15:18:40.388Z,6.54
2023-01-10T15:22:48.355Z,6.51
2023-01-10T15:26:53.830Z,6.51
2023-01-10T15:30:59.608Z,6.49
2023-01-10T15:35:04.058Z,6.46
2023-01-10T15:39:07.464Z,6.42
2023-01-10T15:43:23.865Z,6.41
2023-01-10T15:47:52.746Z,6.38
2023-01-10T15:51:56.771Z,6.30
2023-01-10T15:56:13.405Z,6.20
2023-01-10T16:00:19.019Z,6.18
2023-01-10T16:04:23.737Z,6.18
2023-01-10T16:08:28.959Z,6.18
2023-01-10T16:12:54.860Z,6.14
2023-01-10T16:16:57.932Z,6.16
2023-01-10T16:21:06.179Z,6.12
2023-01-10T16:25:15.430Z,6.11
2023-01-10T16:29:20.493Z,6.11
2023-01-10T16:33:26.987Z,6.10
2023-01-10T16:37:31.747Z,6.07
2023-01-10T16:41:52.117Z,6.08
2023-01-10T16:46:00.026Z,6.07
2023-01-10T16:50:03.283Z,6.09
2023-01-10T16:54:07.899Z,6.05
2023-01-10T16:58:11.826Z,6.05
2023-01-10T17:02:19.650Z,6.05
2023-01-10T17:06:22.986Z,6.00
2023-01-10T17:10:27.637Z,5.98
2023-01-10T17:14:31.484Z,5.97
2023-01-10T17:18:34.575Z,5.96
2023-01-10T17:22:37.612Z,5.91
2023-01-10T17:26:42.037Z,5.90
2023-01-10T17:30:45.926Z,5.91
2023-01-10T17:34:48.981Z,5.88
2023-01-10T17:38:52.223Z,5.84
2023-01-10T17:42:56.632Z,5.82
2023-01-10T17:46:59.656Z,5.80
2023-01-10T17:51:04.095Z,5.80
2023-01-10T17:55:08.437Z,5.77
2023-01-10T17:59:12.983Z,5.79
2023-01-10T18:03:16.705Z,5.79
2023-01-10T18:07:19.805Z,5.78
2023-01-10T18:11:25.044Z,5.78
2023-01-10T18:15:29.595Z,5.77
2023-01-10T18:19:32.724Z,5.77
2023-01-10T18:23:35.956Z,5.78
2023-01-10T18:27:39.237Z,5.79
2023-01-10T18:31:43.680Z,5.77
2023-01-10T18:35:47.492Z,5.80
2023-01-10T18:39:50.723Z,5.80
2023-01-10T18:43:53.970Z,5.81
2023-01-10T18:47:59.226Z,5.78
2023-01-10T18:52:02.272Z,5.78
2023-01-10T18:56:06.764Z,5.76
2023-01-10T19:00:11.113Z,5.77
2023-01-10T19:04:15.759Z,5.78
2023-01-10T19:08:18.990Z,5.75
2023-01-10T19:12:22.277Z,5.72
2023-01-10T19:16:26.839Z,5.71
2023-01-10T19:20:31.410Z,5.68
2023-01-10T19:24:37.663Z,5.66
2023-01-10T19:28:40.826Z,5.67
2023-01-10T19:32:44.011Z,5.64
2023-01-10T19:36:48.410Z,5.61
2023-01-10T19:40:53.031Z,5.59
2023-01-10T19:44:56.078Z,5.57
2023-01-10T19:49:02.105Z,5.59
2023-01-10T19:53:06.502Z,5.56
2023-01-10T19:57:09.551Z,5.52
2023-01-10T20:01:15.183Z,5.51
2023-01-10T20:05:18.350Z,5.47
2023-01-10T20:09:22.783Z,5.43
2023-01-10T20:13:25.851Z,5.42
2023-01-10T20:17:30.052Z,5.36
2023-01-10T20:21:33.314Z,5.34
2023-01-10T20:25:37.681Z,5.30
2023-01-10T20:29:45.539Z,5.26
2023-01-10T20:33:49.193Z,5.23
2023-01-10T20:37:52.296Z,5.19
2023-01-10T20:41:56.704Z,5.21
2023-01-10T20:46:05.646Z,5.14
2023-01-10T20:50:10.022Z,5.12
2023-01-10T20:54:13.234Z,5.13
2023-01-10T20:58:17.652Z,5.12
2023-01-10T21:02:20.704Z,5.11
2023-01-10T21:06:23.940Z,5.07
2023-01-10T21:10:26.990Z,5.06
2023-01-10T21:14:31.416Z,5.06
2023-01-10T21:18:40.884Z,5.02
2023-01-10T21:22:44.419Z,4.99
2023-01-10T21:26:48.583Z,4.96
2023-01-10T21:30:53.891Z,4.96
2023-01-10T21:34:56.931Z,4.95
2023-01-10T21:38:59.955Z,4.94
2023-01-10T21:43:03.052Z,4.95
2023-01-10T21:47:07.661Z,4.95
2023-01-10T21:51:10.714Z,4.96
2023-01-10T21:55:16.046Z,4.96
2023-01-10T21:59:19.223Z,4.96
2023-01-10T22:03:23.788Z,4.97
2023-01-10T22:07:29.425Z,4.93
2023-01-10T22:11:32.517Z,4.94
2023-01-10T22:15:37.613Z,4.90
2023-01-10T22:19:42.288Z,4.91
2023-01-10T22:23:45.979Z,4.88
2023-01-10T22:27:49.291Z,4.87
2023-01-10T22:31:52.950Z,4.86
2023-01-10T22:35:57.853Z,4.89
2023-01-10T22:40:01.217Z,4.88
2023-01-10T22:44:05.281Z,4.87
2023-01-10T22:48:08.522Z,4.84
2023-01-10T22:52:12.962Z,4.86
2023-01-10T22:56:16.234Z,4.84
2023-01-10T23:00:19.931Z,4.88
2023-01-10T23:04:24.240Z,4.90
2023-01-10T23:08:29.217Z,4.88
2023-01-10T23:12:32.282Z,4.90
2023-01-10T23:16:35.515Z,4.89
2023-01-10T23:20:38.725Z,4.88
2023-01-10T23:24:43.143Z,4.89
2023-01-10T23:28:48.244Z,4.89
2023-01-10T23:32:51.845Z,4.88
2023-01-10T23:36:55.124Z,4.87
2023-01-10T23:41:00.084Z,4.84
2023-01-10T23:45:03.153Z,4.83
2023-01-10T23:49:06.215Z,4.79
2023-01-10T23:53:10.254Z,4.79
2023-01-10T23:57:14.638Z,4.76
